Time;durP1;ratioP1;P1;durP2;ratioP2;P2;SDS_P1;SDS_P2;PMS_P1;PMS_P2;Temp;Humidity;BMP_temperature;BMP_pressure;BME280_temperature;BME280_humidity;BME280_pressure;Samples;Min_cycle;Max_cycle;Signal;HPM_P1;HPM_P2
2023/08/28 00:02:03;;;;;;;0.80;0.80;;;18.00;88.60;;;;;;5030554;28;20471;-63
2023/08/28 00:04:29;;;;;;;1.17;1.08;;;18.00;88.80;;;;;;5019707;28;20068;-62
2023/08/28 00:06:54;;;;;;;1.10;1.00;;;18.00;89.00;;;;;;5028352;28;20459;-63
2023/08/28 00:09:20;;;;;;;1.27;0.98;;;17.90;89.20;;;;;;5026097;28;20052;-63
2023/08/28 00:11:45;;;;;;;0.90;0.90;;;18.00;89.30;;;;;;5028494;28;20109;-63
2023/08/28 00:14:11;;;;;;;0.90;0.90;;;17.90;89.20;;;;;;5032649;28;20080;-63
2023/08/28 00:16:37;;;;;;;1.92;1.00;;;18.00;89.10;;;;;;5031277;28;20048;-62
2023/08/28 00:19:03;;;;;;;1.75;1.30;;;17.90;89.00;;;;;;5025578;28;20037;-63
2023/08/28 00:21:29;;;;;;;1.02;0.93;;;17.90;89.00;;;;;;5029958;28;20560;-62
2023/08/28 00:23:55;;;;;;;0.80;0.80;;;17.90;88.90;;;;;;5030684;28;20055;-62
2023/08/28 00:26:20;;;;;;;3.28;0.98;;;17.90;88.90;;;;;;5026780;28;20125;-63
2023/08/28 00:28:46;;;;;;;1.60;0.95;;;17.90;89.20;;;;;;5028313;28;20119;-62
2023/08/28 00:31:12;;;;;;;1.95;1.08;;;17.90;89.30;;;;;;5028187;28;20084;-63
2023/08/28 00:33:37;;;;;;;1.55;1.00;;;17.90;89.50;;;;;;5028182;28;20044;-63
2023/08/28 00:36:03;;;;;;;1.02;0.93;;;17.90;90.10;;;;;;5025106;28;20697;-62
2023/08/28 00:38:29;;;;;;;1.17;0.98;;;17.80;89.50;;;;;;5024098;28;20194;-62
2023/08/28 00:40:54;;;;;;;1.00;0.98;;;17.80;89.50;;;;;;5027027;28;20502;-63
2023/08/28 00:43:20;;;;;;;1.25;1.05;;;17.80;89.40;;;;;;5024608;28;20045;-63
2023/08/28 00:45:48;;;;;;;1.95;0.85;;;17.80;89.50;;;;;;5024588;28;20041;-63
2023/08/28 00:48:19;;;;;;;0.80;0.80;;;17.80;89.70;;;;;;5026327;28;20242;-63
2023/08/28 00:50:47;;;;;;;1.30;1.08;;;17.80;89.70;;;;;;5027927;28;20094;-63
2023/08/28 00:53:13;;;;;;;2.15;1.00;;;17.80;89.50;;;;;;5029998;28;20037;-63
2023/08/28 00:55:40;;;;;;;1.33;1.10;;;17.90;89.40;;;;;;5029577;28;21023;-62
2023/08/28 00:58:06;;;;;;;1.77;1.00;;;17.90;89.40;;;;;;5032965;28;20405;-62
2023/08/28 01:00:31;;;;;;;1.42;1.10;;;17.80;89.30;;;;;;5031650;28;20044;-62
2023/08/28 01:02:57;;;;;;;1.00;1.00;;;17.90;89.50;;;;;;5025586;28;20029;-62
2023/08/28 01:05:31;;;;;;;2.40;1.20;;;17.80;89.30;;;;;;5028383;28;20037;-63
2023/08/28 01:08:11;;;;;;;1.00;0.90;;;17.80;89.20;;;;;;5029066;28;20030;-61
2023/08/28 01:10:44;;;;;;;2.15;1.10;;;17.80;89.10;;;;;;5030271;28;20061;-63
2023/08/28 01:13:36;;;;;;;1.13;0.85;;;17.80;89.30;;;;;;5033487;28;20513;-63
2023/08/28 01:16:03;;;;;;;1.00;0.90;;;17.80;89.50;;;;;;5032905;28;20136;-63
2023/08/28 01:18:30;;;;;;;1.00;1.00;;;17.80;89.40;;;;;;5028080;28;20036;-62
2023/08/28 01:20:57;;;;;;;2.72;1.00;;;17.80;89.50;;;;;;5029953;28;20170;-63
2023/08/28 01:23:39;;;;;;;1.90;1.13;;;17.80;89.50;;;;;;5030389;28;20040;-62
2023/08/28 01:26:06;;;;;;;1.25;1.10;;;17.80;89.70;;;;;;5027626;28;20051;-63
2023/08/28 01:28:32;;;;;;;3.95;1.20;;;17.80;90.10;;;;;;5030662;28;20092;-63
2023/08/28 01:30:57;;;;;;;1.65;1.23;;;17.80;89.60;;;;;;5029477;28;20889;-63
2023/08/28 01:33:23;;;;;;;2.22;0.95;;;17.80;89.60;;;;;;5031985;28;20045;-64
2023/08/28 01:36:06;;;;;;;1.95;1.00;;;17.80;89.70;;;;;;5029377;28;20034;-64
2023/08/28 01:38:40;;;;;;;0.90;0.90;;;17.90;89.90;;;;;;5029553;28;20463;-63
2023/08/28 01:41:09;;;;;;;1.10;1.00;;;17.80;89.50;;;;;;5028471;28;20493;-63
2023/08/28 01:43:42;;;;;;;1.15;0.70;;;17.80;89.30;;;;;;5029567;28;22200;-63
2023/08/28 01:46:09;;;;;;;1.10;1.00;;;17.80;89.30;;;;;;5028728;28;20067;-64
2023/08/28 01:48:35;;;;;;;1.20;1.10;;;17.80;89.50;;;;;;5028586;28;22514;-63
2023/08/28 01:51:01;;;;;;;1.20;1.10;;;17.80;89.50;;;;;;5028803;28;20033;-62
2023/08/28 01:53:27;;;;;;;1.40;1.00;;;17.80;89.30;;;;;;5028929;28;20145;-62
2023/08/28 01:56:08;;;;;;;2.15;1.20;;;17.80;89.30;;;;;;5036263;28;20132;-63
2023/08/28 01:58:54;;;;;;;2.65;1.30;;;17.80;90.00;;;;;;5030898;28;20044;-63
2023/08/28 02:01:24;;;;;;;1.50;1.23;;;17.70;89.40;;;;;;5028425;28;20045;-63
2023/08/28 02:03:51;;;;;;;1.75;1.00;;;17.70;89.50;;;;;;5031378;28;20057;-62
2023/08/28 02:06:16;;;;;;;1.40;1.30;;;17.70;89.50;;;;;;5030550;28;20581;-63
2023/08/28 02:08:42;;;;;;;1.25;1.15;;;17.70;89.40;;;;;;5033094;28;20048;-62
2023/08/28 02:11:08;;;;;;;1.60;1.50;;;17.60;89.50;;;;;;5028251;28;20032;-62
2023/08/28 02:13:34;;;;;;;1.45;1.35;;;17.60;89.70;;;;;;5031832;28;20067;-63
2023/08/28 02:16:00;;;;;;;2.35;1.50;;;17.60;89.70;;;;;;5031749;28;20041;-63
2023/08/28 02:18:26;;;;;;;1.70;1.60;;;17.50;89.80;;;;;;5030137;28;20303;-63
2023/08/28 02:20:52;;;;;;;1.40;1.30;;;17.50;90.30;;;;;;5028315;28;20072;-64
2023/08/28 02:23:19;;;;;;;1.95;1.60;;;17.50;90.00;;;;;;5026531;28;20116;-63
2023/08/28 02:25:49;;;;;;;2.97;1.30;;;17.50;90.20;;;;;;5025907;28;20103;-63
2023/08/28 02:28:18;;;;;;;1.52;1.42;;;17.50;90.30;;;;;;5027828;28;20030;-63
2023/08/28 02:30:45;;;;;;;1.50;1.40;;;17.50;90.30;;;;;;5029007;28;20039;-62
2023/08/28 02:33:11;;;;;;;2.65;1.63;;;17.50;90.30;;;;;;5030268;28;20423;-63
2023/08/28 02:35:36;;;;;;;1.83;1.55;;;17.40;90.30;;;;;;5030419;28;20036;-63
2023/08/28 02:38:02;;;;;;;2.17;1.52;;;17.50;90.30;;;;;;5030031;28;20033;-65
2023/08/28 02:40:28;;;;;;;2.10;1.70;;;17.50;90.30;;;;;;5027360;28;20532;-62
2023/08/28 02:42:54;;;;;;;1.60;1.50;;;17.50;90.30;;;;;;5026853;28;20048;-63
2023/08/28 02:45:19;;;;;;;4.63;1.60;;;17.50;90.30;;;;;;5031422;28;20067;-62
2023/08/28 02:47:45;;;;;;;1.90;1.80;;;17.50;90.40;;;;;;5027495;28;20124;-63
2023/08/28 02:50:11;;;;;;;1.73;1.63;;;17.50;90.40;;;;;;5027519;28;20487;-63
2023/08/28 02:52:36;;;;;;;2.42;1.90;;;17.50;90.50;;;;;;5026171;28;20037;-63
2023/08/28 02:55:02;;;;;;;2.72;1.77;;;17.50;90.50;;;;;;5026998;28;20029;-63
2023/08/28 02:57:27;;;;;;;4.75;1.63;;;17.60;90.50;;;;;;5025357;28;20153;-62
2023/08/28 02:59:53;;;;;;;1.90;1.80;;;17.60;90.40;;;;;;5025705;28;20044;-63
2023/08/28 03:02:19;;;;;;;2.10;1.90;;;17.60;90.40;;;;;;5035945;28;20533;-64
2023/08/28 03:04:44;;;;;;;2.00;1.80;;;17.70;90.40;;;;;;5028205;28;20190;-64
2023/08/28 03:07:10;;;;;;;1.80;1.70;;;17.70;90.30;;;;;;5026735;28;20044;-63
2023/08/28 03:09:35;;;;;;;2.15;1.67;;;17.70;90.20;;;;;;5028879;28;20103;-63
2023/08/28 03:12:02;;;;;;;2.22;1.90;;;17.70;90.30;;;;;;5020115;28;20041;-63
2023/08/28 03:14:27;;;;;;;2.38;1.67;;;17.70;90.30;;;;;;5024233;28;20515;-62
2023/08/28 03:16:53;;;;;;;1.92;1.80;;;17.70;90.30;;;;;;5030679;28;20049;-63
2023/08/28 03:19:18;;;;;;;1.95;1.77;;;17.70;90.30;;;;;;5028771;28;20496;-64
2023/08/28 03:21:44;;;;;;;2.00;1.90;;;17.70;90.20;;;;;;5030046;28;20029;-63
2023/08/28 03:24:10;;;;;;;4.35;2.67;;;17.70;90.20;;;;;;5026888;28;20528;-62
2023/08/28 03:26:35;;;;;;;33.03;15.63;;;17.70;90.30;;;;;;5029327;28;20045;-63
2023/08/28 03:29:01;;;;;;;35.88;18.60;;;17.70;90.30;;;;;;5023189;28;20540;-63
2023/08/28 03:31:27;;;;;;;55.25;32.45;;;17.70;90.30;;;;;;5026211;28;20426;-63
2023/08/28 03:33:53;;;;;;;40.03;24.85;;;17.70;90.20;;;;;;5029278;28;20038;-63
2023/08/28 03:36:18;;;;;;;15.30;11.55;;;17.70;90.20;;;;;;5030043;28;20036;-63
2023/08/28 03:38:45;;;;;;;7.88;6.80;;;17.70;90.30;;;;;;5030590;28;20072;-63
2023/08/28 03:41:10;;;;;;;4.40;3.70;;;17.60;90.40;;;;;;5027856;28;20071;-63
2023/08/28 03:43:36;;;;;;;3.10;2.80;;;17.60;90.40;;;;;;5026131;28;20120;-63
2023/08/28 03:46:02;;;;;;;2.58;2.38;;;17.60;90.40;;;;;;5031261;28;20098;-63
2023/08/28 03:48:27;;;;;;;2.85;2.47;;;17.60;90.30;;;;;;5027981;28;20079;-63
2023/08/28 03:50:53;;;;;;;2.50;2.30;;;17.60;90.30;;;;;;5030953;28;20624;-63
2023/08/28 03:53:19;;;;;;;1.95;1.85;;;17.60;90.30;;;;;;5025699;28;20033;-63
2023/08/28 03:55:44;;;;;;;2.40;2.20;;;17.70;90.30;;;;;;5024822;28;20036;-63
2023/08/28 03:58:10;;;;;;;3.17;2.30;;;17.60;90.30;;;;;;5026246;28;20072;-64
2023/08/28 04:00:35;;;;;;;2.30;2.10;;;17.70;90.40;;;;;;5025573;28;20037;-62
2023/08/28 04:03:01;;;;;;;2.45;2.25;;;17.70;90.40;;;;;;5030661;28;20124;-63
2023/08/28 04:05:26;;;;;;;2.63;2.42;;;17.70;90.30;;;;;;5028451;28;20682;-63
2023/08/28 04:07:52;;;;;;;2.25;2.15;;;17.70;90.30;;;;;;5033632;28;20029;-63
2023/08/28 04:10:19;;;;;;;2.53;2.25;;;17.70;90.20;;;;;;5027272;28;20037;-63
2023/08/28 04:12:44;;;;;;;2.15;2.05;;;17.60;90.00;;;;;;5024868;28;20365;-64
2023/08/28 04:15:10;;;;;;;2.35;2.10;;;17.60;89.70;;;;;;5031415;28;20623;-64
2023/08/28 04:17:36;;;;;;;3.22;2.22;;;17.60;89.70;;;;;;5023767;28;20041;-63
2023/08/28 04:20:13;;;;;;;2.63;2.28;;;17.60;90.00;;;;;;5023954;28;20038;-63
2023/08/28 04:22:43;;;;;;;2.65;2.08;;;17.50;89.90;;;;;;5023036;28;20144;-63
2023/08/28 04:25:13;;;;;;;1.80;1.70;;;17.40;89.80;;;;;;5024607;28;20523;-63
2023/08/28 04:27:39;;;;;;;2.33;2.13;;;17.40;89.80;;;;;;5025073;28;20489;-63
2023/08/28 04:30:06;;;;;;;3.80;2.25;;;17.40;89.70;;;;;;5031986;28;20523;-63
2023/08/28 04:32:32;;;;;;;3.55;2.10;;;17.40;89.60;;;;;;5031932;28;20056;-63
2023/08/28 04:34:57;;;;;;;3.63;1.95;;;17.30;89.60;;;;;;5031231;28;20034;-63
2023/08/28 04:37:24;;;;;;;4.40;2.05;;;17.20;89.80;;;;;;5032050;28;20575;-64
2023/08/28 04:39:50;;;;;;;2.65;2.20;;;17.20;90.00;;;;;;5032922;28;20399;-63
2023/08/28 04:42:16;;;;;;;2.78;2.42;;;17.20;90.00;;;;;;5032426;28;20053;-63
2023/08/28 04:44:42;;;;;;;2.55;2.15;;;17.20;90.00;;;;;;5033503;28;20120;-62
2023/08/28 04:47:07;;;;;;;3.72;2.35;;;17.10;90.00;;;;;;5033174;28;20492;-62
2023/08/28 04:49:33;;;;;;;3.22;2.50;;;17.10;90.10;;;;;;5033118;28;20446;-63
2023/08/28 04:51:59;;;;;;;3.40;3.05;;;17.00;90.10;;;;;;5032967;28;20659;-62
2023/08/28 04:54:24;;;;;;;3.75;3.22;;;17.00;90.20;;;;;;5032926;28;20044;-63
2023/08/28 04:56:50;;;;;;;5.10;3.80;;;16.90;90.10;;;;;;5034142;28;20455;-62
2023/08/28 04:59:15;;;;;;;4.35;3.95;;;16.90;90.10;;;;;;5033648;28;20061;-63
2023/08/28 05:01:41;;;;;;;4.25;3.85;;;16.80;90.00;;;;;;5033780;28;20033;-63
2023/08/28 05:04:07;;;;;;;6.18;4.40;;;16.80;90.20;;;;;;5033241;28;20072;-63
2023/08/28 05:06:33;;;;;;;5.13;4.38;;;16.70;90.20;;;;;;5031981;28;20080;-61
2023/08/28 05:08:59;;;;;;;5.38;4.82;;;16.70;90.30;;;;;;5030726;28;20030;-61
2023/08/28 05:11:24;;;;;;;5.45;4.60;;;16.70;90.40;;;;;;5032069;28;20052;-62
2023/08/28 05:13:50;;;;;;;5.30;4.70;;;16.60;90.40;;;;;;5033347;28;20033;-62
2023/08/28 05:16:16;;;;;;;5.38;4.68;;;16.50;90.60;;;;;;5032500;28;20045;-62
2023/08/28 05:18:42;;;;;;;4.82;4.35;;;16.50;90.80;;;;;;5030791;28;20033;-62
2023/08/28 05:21:07;;;;;;;5.68;4.90;;;16.50;90.80;;;;;;5031884;28;20129;-63
2023/08/28 05:23:33;;;;;;;5.25;4.75;;;16.50;90.80;;;;;;5031876;28;20107;-63
2023/08/28 05:25:58;;;;;;;4.40;4.00;;;16.50;90.80;;;;;;5032867;28;20444;-62
2023/08/28 05:28:24;;;;;;;4.97;4.47;;;16.50;90.80;;;;;;5033386;28;20087;-63
2023/08/28 05:30:49;;;;;;;4.28;3.63;;;16.50;90.60;;;;;;5029950;28;20088;-62
2023/08/28 05:33:15;;;;;;;4.22;2.85;;;16.50;90.60;;;;;;5033518;28;20137;-62
2023/08/28 05:35:41;;;;;;;3.05;2.30;;;16.40;90.40;;;;;;5032471;28;20041;-63
2023/08/28 05:38:07;;;;;;;3.97;1.80;;;16.40;90.40;;;;;;5036684;28;22132;-63
2023/08/28 05:40:33;;;;;;;3.83;2.22;;;16.40;90.20;;;;;;5035458;28;20041;-62
2023/08/28 05:42:59;;;;;;;1.98;1.70;;;16.30;90.10;;;;;;5036132;28;20083;-63
2023/08/28 05:45:25;;;;;;;2.05;1.83;;;16.30;90.10;;;;;;5037564;28;20037;-61
2023/08/28 05:47:50;;;;;;;2.13;1.77;;;16.30;90.20;;;;;;5034605;28;20033;-62
2023/08/28 05:50:18;;;;;;;1.90;1.70;;;16.20;90.20;;;;;;5034588;28;20042;-63
2023/08/28 05:52:44;;;;;;;2.55;1.90;;;16.20;90.30;;;;;;5035440;28;20056;-63
2023/08/28 05:55:10;;;;;;;2.60;2.00;;;16.20;90.30;;;;;;5036507;28;20029;-63
2023/08/28 05:57:35;;;;;;;2.67;2.30;;;16.10;90.30;;;;;;5035806;28;20041;-63
2023/08/28 06:00:03;;;;;;;3.35;2.17;;;16.10;90.40;;;;;;5035254;28;20032;-62
2023/08/28 06:02:28;;;;;;;3.45;2.28;;;16.10;90.50;;;;;;5037092;28;20039;-60
2023/08/28 06:04:54;;;;;;;2.80;2.13;;;16.10;90.60;;;;;;5036322;28;20175;-63
2023/08/28 06:07:19;;;;;;;2.65;2.30;;;16.10;90.60;;;;;;5035611;28;20044;-63
2023/08/28 06:09:45;;;;;;;2.40;1.85;;;16.00;90.60;;;;;;5035467;28;20048;-62
2023/08/28 06:12:10;;;;;;;2.15;1.73;;;16.00;90.60;;;;;;5033054;28;20441;-62
2023/08/28 06:14:36;;;;;;;1.92;1.75;;;16.00;90.60;;;;;;5036433;28;20044;-62
2023/08/28 06:17:03;;;;;;;1.77;1.55;;;16.00;90.60;;;;;;5036175;28;20102;-62
2023/08/28 06:19:29;;;;;;;1.92;1.40;;;16.00;90.60;;;;;;5038255;28;20041;-61
2023/08/28 06:21:55;;;;;;;1.67;1.25;;;15.90;90.40;;;;;;5035614;28;20801;-62
2023/08/28 06:24:20;;;;;;;1.88;1.40;;;15.90;90.40;;;;;;5037491;28;20130;-62
2023/08/28 06:26:46;;;;;;;1.63;1.20;;;15.90;90.30;;;;;;5037200;28;20048;-62
2023/08/28 06:29:11;;;;;;;2.25;1.30;;;15.90;90.20;;;;;;5038030;28;20045;-62
2023/08/28 06:31:37;;;;;;;3.95;1.38;;;15.90;90.30;;;;;;5037895;28;20044;-62
2023/08/28 06:34:02;;;;;;;2.83;1.50;;;15.80;90.30;;;;;;5037393;28;20029;-62
2023/08/28 06:36:28;;;;;;;1.70;1.52;;;15.80;90.30;;;;;;5037368;28;20033;-62
2023/08/28 06:38:54;;;;;;;1.67;1.38;;;15.70;90.30;;;;;;5033888;28;20539;-62
2023/08/28 06:41:19;;;;;;;2.90;1.50;;;15.70;90.40;;;;;;5035075;28;20041;-62
2023/08/28 06:43:47;;;;;;;1.48;1.38;;;15.70;90.50;;;;;;5036236;28;20064;-63
2023/08/28 06:46:12;;;;;;;2.70;1.45;;;15.70;90.70;;;;;;5035633;28;20099;-62
2023/08/28 06:48:38;;;;;;;1.88;1.45;;;15.70;90.80;;;;;;5033196;28;20033;-62
2023/08/28 06:51:03;;;;;;;1.58;1.48;;;15.70;90.80;;;;;;5033097;28;20037;-62
2023/08/28 06:53:30;;;;;;;2.60;1.95;;;15.80;90.80;;;;;;5035586;28;20474;-62
2023/08/28 06:55:56;;;;;;;2.83;1.67;;;15.70;90.80;;;;;;5035139;28;20033;-63
2023/08/28 06:58:22;;;;;;;3.67;2.78;;;15.70;90.70;;;;;;5036227;28;20048;-63
2023/08/28 07:00:47;;;;;;;2.13;1.48;;;15.70;90.80;;;;;;5032984;28;20045;-63
2023/08/28 07:03:13;;;;;;;1.95;1.75;;;15.80;90.80;;;;;;5033679;28;20061;-63
2023/08/28 07:05:40;;;;;;;1.83;1.60;;;15.80;90.80;;;;;;5033617;28;20052;-63
2023/08/28 07:08:06;;;;;;;3.17;1.60;;;15.80;90.70;;;;;;5033168;28;20387;-63
2023/08/28 07:10:31;;;;;;;2.17;1.60;;;15.80;90.70;;;;;;5030823;28;20034;-62
2023/08/28 07:12:57;;;;;;;2.17;1.50;;;15.80;90.70;;;;;;5034496;28;20041;-62
2023/08/28 07:15:26;;;;;;;1.88;1.70;;;15.80;90.60;;;;;;5035868;28;20505;-62
2023/08/28 07:17:51;;;;;;;1.73;1.45;;;15.80;90.70;;;;;;5035112;28;20060;-63
2023/08/28 07:20:17;;;;;;;2.65;1.73;;;15.80;90.80;;;;;;5034887;28;20049;-62
2023/08/28 07:22:43;;;;;;;3.05;1.45;;;15.80;90.80;;;;;;5031445;28;20070;-62
2023/08/28 07:25:09;;;;;;;3.28;1.75;;;15.80;91.00;;;;;;5032573;28;20112;-62
2023/08/28 07:27:35;;;;;;;2.65;1.90;;;15.80;90.90;;;;;;5034523;28;20034;-62
2023/08/28 07:30:04;;;;;;;2.00;1.40;;;15.80;90.90;;;;;;5033257;28;20029;-63
2023/08/28 07:32:31;;;;;;;2.15;1.95;;;15.90;91.00;;;;;;5033160;28;20053;-62
2023/08/28 07:34:59;;;;;;;3.22;1.77;;;15.90;90.90;;;;;;5034776;28;20037;-64
2023/08/28 07:37:28;;;;;;;2.50;2.13;;;15.90;90.90;;;;;;5034436;28;20425;-62
2023/08/28 07:39:54;;;;;;;2.85;1.80;;;15.90;90.90;;;;;;5032317;28;20047;-62
2023/08/28 07:42:20;;;;;;;2.50;1.92;;;15.90;91.00;;;;;;5031832;28;20033;-63
2023/08/28 07:44:45;;;;;;;2.47;1.90;;;15.90;91.00;;;;;;5032085;28;20029;-63
2023/08/28 07:47:12;;;;;;;6.35;1.88;;;15.90;91.00;;;;;;5034496;28;20087;-63
2023/08/28 07:49:38;;;;;;;5.18;2.15;;;15.90;91.00;;;;;;5032942;28;20937;-63
2023/08/28 07:52:04;;;;;;;2.75;2.30;;;16.00;91.10;;;;;;5033339;28;20099;-62
2023/08/28 07:54:30;;;;;;;3.20;2.15;;;16.00;91.10;;;;;;5033930;28;20041;-63
2023/08/28 07:56:55;;;;;;;2.40;2.20;;;16.00;91.10;;;;;;5032019;28;20025;-62
2023/08/28 07:59:21;;;;;;;2.38;2.13;;;16.00;91.10;;;;;;5032576;28;20041;-62
2023/08/28 08:01:47;;;;;;;2.47;2.17;;;16.00;91.10;;;;;;5031454;28;20696;-63
2023/08/28 08:04:12;;;;;;;2.40;2.20;;;16.00;91.10;;;;;;5035981;28;20731;-63
2023/08/28 08:06:38;;;;;;;2.65;2.22;;;16.10;91.00;;;;;;5033144;28;20032;-63
2023/08/28 08:09:04;;;;;;;3.30;2.40;;;16.00;91.00;;;;;;5033223;28;20037;-63
2023/08/28 08:11:30;;;;;;;3.25;2.15;;;16.10;91.00;;;;;;5034167;28;20397;-63
2023/08/28 08:13:55;;;;;;;2.85;2.55;;;16.10;91.00;;;;;;5036330;28;20049;-63
2023/08/28 08:16:21;;;;;;;2.83;2.38;;;16.10;91.00;;;;;;5032644;28;20037;-63
2023/08/28 08:18:46;;;;;;;4.00;2.90;;;16.10;91.00;;;;;;5033188;28;20029;-64
2023/08/28 08:21:13;;;;;;;3.63;2.70;;;16.10;91.00;;;;;;5034185;28;20041;-63
2023/08/28 08:23:39;;;;;;;3.28;2.92;;;16.10;91.00;;;;;;5033988;28;20033;-63
2023/08/28 08:26:05;;;;;;;3.33;2.75;;;16.10;91.00;;;;;;5034790;28;20523;-63
2023/08/28 08:28:32;;;;;;;4.82;2.92;;;16.10;91.00;;;;;;5033931;28;20033;-63
2023/08/28 08:30:57;;;;;;;2.70;2.50;;;16.10;91.00;;;;;;5033759;28;20029;-64
2023/08/28 08:33:23;;;;;;;3.15;2.67;;;16.10;91.10;;;;;;5037382;28;20045;-63
2023/08/28 08:35:49;;;;;;;3.70;2.90;;;16.10;91.10;;;;;;5036535;28;20397;-63
2023/08/28 08:38:14;;;;;;;2.90;2.55;;;16.10;91.10;;;;;;5036559;28;20033;-62
2023/08/28 08:40:40;;;;;;;2.83;2.50;;;16.10;91.20;;;;;;5036050;28;20102;-63
2023/08/28 08:43:06;;;;;;;2.95;2.42;;;16.10;91.30;;;;;;5036353;28;20038;-63
2023/08/28 08:45:36;;;;;;;3.22;2.60;;;16.10;91.30;;;;;;5035666;28;20034;-62
2023/08/28 08:48:05;;;;;;;2.33;2.17;;;16.10;91.20;;;;;;5034273;28;20064;-63
2023/08/28 08:50:34;;;;;;;2.65;2.45;;;16.20;91.20;;;;;;5032556;28;20095;-63
2023/08/28 08:53:06;;;;;;;2.75;2.55;;;16.20;91.10;;;;;;5033782;28;20041;-64
2023/08/28 08:55:40;;;;;;;2.83;2.40;;;16.20;91.10;;;;;;5034360;28;20037;-63
2023/08/28 08:58:10;;;;;;;2.90;2.40;;;16.20;91.30;;;;;;5032921;28;20444;-63
2023/08/28 09:00:38;;;;;;;3.42;2.55;;;16.20;91.30;;;;;;5033771;28;20064;-63
2023/08/28 09:03:05;;;;;;;5.88;2.80;;;16.20;91.20;;;;;;5035485;28;20042;-64
2023/08/28 09:05:31;;;;;;;3.10;2.72;;;16.20;91.30;;;;;;5033243;28;20038;-63
2023/08/28 09:07:59;;;;;;;3.35;3.05;;;16.20;91.50;;;;;;5033126;28;20092;-63
2023/08/28 09:10:25;;;;;;;3.15;2.90;;;16.30;91.70;;;;;;5031144;28;20087;-63
2023/08/28 09:12:51;;;;;;;3.67;2.92;;;16.30;91.80;;;;;;5038727;28;20041;-63
2023/08/28 09:15:18;;;;;;;3.00;2.80;;;16.40;91.90;;;;;;5038228;28;20037;-63
2023/08/28 09:17:44;;;;;;;3.20;3.00;;;16.40;92.10;;;;;;5037735;28;20034;-63
2023/08/28 09:20:16;;;;;;;3.35;2.65;;;16.50;92.10;;;;;;5035849;28;20057;-63
2023/08/28 09:22:49;;;;;;;2.88;2.67;;;16.50;92.00;;;;;;5036940;28;20040;-64
2023/08/28 09:25:20;;;;;;;3.08;2.78;;;16.60;92.00;;;;;;5038487;28;20345;-64
2023/08/28 09:27:46;;;;;;;2.75;2.55;;;16.60;91.90;;;;;;5037059;28;20033;-63
2023/08/28 09:30:36;;;;;;;2.95;2.75;;;16.70;91.70;;;;;;5036840;28;20037;-63
2023/08/28 09:33:04;;;;;;;2.40;2.20;;;16.70;91.50;;;;;;5037129;28;20057;-63
2023/08/28 09:35:39;;;;;;;2.47;2.25;;;16.70;91.50;;;;;;5038944;28;20040;-63
2023/08/28 09:38:06;;;;;;;2.25;2.08;;;16.70;91.80;;;;;;5037338;28;20037;-63
2023/08/28 09:40:34;;;;;;;2.00;1.80;;;16.80;91.80;;;;;;5036726;28;20049;-63
2023/08/28 09:43:00;;;;;;;4.30;1.90;;;16.80;91.70;;;;;;5037092;28;20037;-63
2023/08/28 09:45:33;;;;;;;1.73;1.60;;;16.80;91.30;;;;;;5035880;28;20064;-61
2023/08/28 09:47:59;;;;;;;1.55;1.42;;;16.90;91.10;;;;;;5037295;28;20176;-61
2023/08/28 09:50:28;;;;;;;3.25;1.77;;;16.90;91.30;;;;;;5036928;28;20048;-62
2023/08/28 09:52:54;;;;;;;2.65;1.75;;;17.00;91.30;;;;;;5037204;28;20040;-62
2023/08/28 09:55:20;;;;;;;1.80;1.48;;;17.00;91.40;;;;;;5037114;28;20049;-63
2023/08/28 09:57:46;;;;;;;1.42;1.27;;;17.10;91.30;;;;;;5035343;28;20042;-63
2023/08/28 10:00:13;;;;;;;1.77;1.50;;;17.20;91.10;;;;;;5037081;28;20038;-62
2023/08/28 10:02:39;;;;;;;1.75;1.13;;;17.30;91.00;;;;;;5036669;28;20179;-62
2023/08/28 10:05:08;;;;;;;1.35;1.25;;;17.30;90.80;;;;;;5036384;28;20040;-60
2023/08/28 10:07:37;;;;;;;2.20;1.60;;;17.30;90.50;;;;;;5036075;28;20029;-62
2023/08/28 10:10:06;;;;;;;2.22;1.35;;;17.40;90.30;;;;;;5036933;28;20118;-62
2023/08/28 10:12:34;;;;;;;1.77;1.35;;;17.40;90.50;;;;;;5034375;28;20154;-60
2023/08/28 10:15:03;;;;;;;1.95;1.02;;;17.50;90.30;;;;;;5037188;28;20083;-61
2023/08/28 10:17:29;;;;;;;2.15;1.00;;;17.50;90.00;;;;;;5036983;28;20045;-61
2023/08/28 10:19:58;;;;;;;1.30;0.88;;;17.50;89.30;;;;;;5037898;28;20040;-61
2023/08/28 10:22:25;;;;;;;1.60;1.25;;;17.60;88.60;;;;;;5033226;28;20045;-62
2023/08/28 10:24:56;;;;;;;1.00;1.00;;;17.60;88.80;;;;;;5037031;28;20048;-62
2023/08/28 10:27:22;;;;;;;1.42;1.00;;;17.60;88.80;;;;;;5036636;28;20548;-62
2023/08/28 10:29:48;;;;;;;1.20;1.10;;;17.60;88.00;;;;;;5037882;28;20487;-62
2023/08/28 10:32:14;;;;;;;1.70;1.02;;;17.60;87.00;;;;;;5036716;28;20525;-61
2023/08/28 10:34:42;;;;;;;1.10;1.00;;;17.70;87.20;;;;;;5037251;28;20045;-61
2023/08/28 10:37:13;;;;;;;1.10;0.90;;;17.60;87.00;;;;;;5037820;28;20120;-59
2023/08/28 10:39:41;;;;;;;1.60;1.08;;;17.60;86.20;;;;;;5036260;28;20033;-60
2023/08/28 10:42:17;;;;;;;1.83;1.10;;;17.60;86.20;;;;;;5036474;28;20029;-61
2023/08/28 10:44:43;;;;;;;1.40;1.30;;;17.50;86.30;;;;;;5034363;28;20666;-61
2023/08/28 10:47:13;;;;;;;1.23;0.93;;;17.60;86.60;;;;;;5036660;28;20038;-61
2023/08/28 10:49:39;;;;;;;2.22;1.10;;;17.50;87.20;;;;;;5035271;28;20493;-62
2023/08/28 10:52:06;;;;;;;1.23;1.13;;;17.60;87.40;;;;;;5036697;28;20049;-61
2023/08/28 10:54:38;;;;;;;2.65;1.35;;;17.60;87.00;;;;;;5034975;28;20040;-61
2023/08/28 10:57:11;;;;;;;2.03;1.42;;;17.60;86.70;;;;;;5037794;28;20037;-60
2023/08/28 10:59:46;;;;;;;1.40;1.30;;;17.60;86.50;;;;;;5034599;28;20061;-61
2023/08/28 11:02:12;;;;;;;2.13;1.42;;;17.60;86.20;;;;;;5035967;28;20029;-61
2023/08/28 11:04:40;;;;;;;1.95;1.50;;;17.50;86.70;;;;;;5035932;28;20044;-61
2023/08/28 11:07:27;;;;;;;1.42;1.33;;;17.50;86.70;;;;;;5035470;28;20451;-59
2023/08/28 11:10:16;;;;;;;1.08;0.98;;;17.50;86.90;;;;;;5034498;28;20037;-60
2023/08/28 11:12:59;;;;;;;2.80;1.20;;;17.50;86.60;;;;;;5035186;28;20075;-61
2023/08/28 11:15:27;;;;;;;1.55;1.45;;;17.50;86.90;;;;;;5033502;28;20453;-61
2023/08/28 11:18:18;;;;;;;1.73;1.40;;;17.50;87.40;;;;;;5035823;28;20500;-61
2023/08/28 11:20:47;;;;;;;1.30;1.20;;;17.50;86.90;;;;;;5034477;28;20110;-60
2023/08/28 11:23:35;;;;;;;1.50;1.35;;;17.50;87.10;;;;;;5034740;28;20124;-61
2023/08/28 11:26:21;;;;;;;3.63;1.40;;;17.50;87.10;;;;;;5035885;28;20037;-59
2023/08/28 11:28:50;;;;;;;1.48;1.20;;;17.50;87.40;;;;;;5037108;28;20116;-59
2023/08/28 11:31:17;;;;;;;1.63;1.33;;;17.50;87.10;;;;;;5036288;28;20416;-61
2023/08/28 11:33:52;;;;;;;2.28;1.10;;;17.50;87.10;;;;;;5035406;28;20029;-60
2023/08/28 11:36:21;;;;;;;;;;;17.50;86.30;;;;;;5037482;28;20037;-60
2023/08/28 11:38:47;;;;;;;1.50;1.20;;;17.50;86.30;;;;;;5031844;28;19947;-60
2023/08/28 11:41:14;;;;;;;1.77;1.50;;;17.50;86.20;;;;;;5035750;28;20037;-61
2023/08/28 11:43:41;;;;;;;1.30;1.20;;;17.50;86.40;;;;;;5033707;28;20033;-62
2023/08/28 11:46:08;;;;;;;1.30;1.20;;;17.40;85.90;;;;;;5035470;28;20033;-62
2023/08/28 11:48:35;;;;;;;1.40;1.30;;;17.40;86.30;;;;;;5034953;28;20441;-62
2023/08/28 11:51:06;;;;;;;1.77;1.50;;;17.40;86.40;;;;;;5034942;28;20594;-61
2023/08/28 11:53:42;;;;;;;1.35;1.20;;;17.40;86.20;;;;;;5033630;28;20025;-61
2023/08/28 11:56:09;;;;;;;1.38;1.27;;;17.40;85.60;;;;;;5035817;28;20056;-61
2023/08/28 11:58:38;;;;;;;1.33;1.23;;;17.30;86.00;;;;;;5035768;28;20084;-61
2023/08/28 12:01:05;;;;;;;1.50;1.33;;;17.30;86.20;;;;;;5033861;28;20044;-61
2023/08/28 12:03:31;;;;;;;2.42;1.30;;;17.40;86.70;;;;;;5035269;28;20489;-62
2023/08/28 12:06:06;;;;;;;1.20;1.10;;;17.30;86.60;;;;;;5035695;28;20127;-61
2023/08/28 12:08:35;;;;;;;1.27;1.17;;;17.30;85.90;;;;;;5032975;28;20120;-61
2023/08/28 12:11:01;;;;;;;1.50;1.35;;;17.40;86.40;;;;;;5031447;28;20038;-61
2023/08/28 12:13:27;;;;;;;1.45;1.30;;;17.40;86.30;;;;;;5034596;28;20430;-61
2023/08/28 12:16:11;;;;;;;1.30;1.20;;;17.40;86.20;;;;;;5034893;28;20033;-60
2023/08/28 12:18:53;;;;;;;1.85;1.35;;;17.40;85.00;;;;;;5035316;28;20045;-61
2023/08/28 12:21:36;;;;;;;1.67;1.30;;;17.50;85.10;;;;;;5036330;28;20067;-61
2023/08/28 12:24:02;;;;;;;1.40;1.20;;;17.50;84.90;;;;;;5033639;28;20041;-61
2023/08/28 12:26:30;;;;;;;1.50;1.40;;;17.50;85.50;;;;;;5032277;28;20064;-61
2023/08/28 12:28:57;;;;;;;1.98;1.55;;;17.50;85.30;;;;;;5034697;28;20526;-61
2023/08/28 12:31:30;;;;;;;1.33;1.20;;;17.50;85.20;;;;;;5032747;28;20079;-61
2023/08/28 12:33:56;;;;;;;1.65;1.50;;;17.50;85.00;;;;;;5035500;28;20035;-61
2023/08/28 12:36:39;;;;;;;1.60;1.50;;;17.60;85.00;;;;;;5035752;28;20043;-61
2023/08/28 12:39:06;;;;;;;1.98;1.50;;;17.60;84.20;;;;;;5033145;28;20421;-61
2023/08/28 12:41:49;;;;;;;2.35;1.50;;;17.60;84.50;;;;;;5035576;28;20080;-61
2023/08/28 12:44:14;;;;;;;2.08;1.58;;;17.60;83.90;;;;;;5035331;28;20103;-61
2023/08/28 12:46:40;;;;;;;1.52;1.40;;;17.60;84.40;;;;;;5036966;28;20037;-61
2023/08/28 12:49:06;;;;;;;1.85;1.48;;;17.60;84.30;;;;;;5036888;28;20041;-62
2023/08/28 12:51:32;;;;;;;1.52;1.42;;;17.50;84.50;;;;;;5037741;28;20749;-62